createdAt,value
2018-12-31T00:21:32.224Z,5.69
2018-12-31T00:32:24.178Z,5.72
2018-12-31T00:37:39.868Z,5.76
2018-12-31T00:42:44.151Z,5.76
2018-12-31T00:47:48.380Z,5.80
2018-12-31T01:03:50.441Z,5.91
2018-12-31T01:08:55.105Z,5.95
2018-12-31T01:13:59.336Z,6.02
2018-12-31T01:24:13.201Z,6.06
2018-12-31T01:29:17.494Z,6.08
2018-12-31T01:39:50.340Z,6.14
2018-12-31T01:44:54.630Z,6.16
2018-12-31T01:50:17.867Z,6.21
2018-12-31T01:55:22.093Z,6.22
2018-12-31T02:00:45.393Z,6.26
2018-12-31T02:05:49.616Z,6.27
2018-12-31T02:10:53.841Z,6.31
2018-12-31T02:16:17.136Z,6.35
2018-12-31T02:21:21.368Z,6.37
2018-12-31T02:26:44.534Z,6.41
2018-12-31T02:32:07.830Z,6.44
2018-12-31T02:37:12.070Z,6.44
2018-12-31T02:42:16.325Z,6.46
2018-12-31T02:47:39.630Z,6.46
2018-12-31T02:57:53.436Z,6.47
2018-12-31T03:03:16.580Z,6.44
2018-12-31T03:13:31.175Z,6.46
2018-12-31T03:18:54.484Z,6.46
2018-12-31T03:39:28.176Z,6.63
2018-12-31T03:49:47.547Z,6.68
2018-12-31T03:54:51.825Z,6.68
2018-12-31T03:59:56.061Z,6.70
2018-12-31T04:05:00.290Z,6.72
2018-12-31T04:15:54.051Z,6.77
2018-12-31T04:20:58.280Z,6.81
2018-12-31T04:26:21.589Z,6.87
2018-12-31T04:31:25.836Z,6.95
2018-12-31T04:36:30.075Z,7.03
2018-12-31T04:41:34.304Z,7.19
2018-12-31T04:46:57.551Z,7.21
2018-12-31T04:52:01.870Z,7.21
2018-12-31T04:57:25.461Z,7.30
2018-12-31T05:02:29.717Z,7.28
2018-12-31T05:07:33.978Z,7.30
2018-12-31T05:12:38.213Z,7.31
2018-12-31T05:23:11.007Z,7.34
2018-12-31T05:28:15.233Z,7.34
2018-12-31T05:33:38.428Z,7.34
2018-12-31T05:39:01.599Z,7.35
2018-12-31T05:44:05.831Z,7.38
2018-12-31T05:49:22.075Z,7.39
2018-12-31T05:54:26.667Z,7.41
2018-12-31T06:04:59.659Z,7.40
2018-12-31T06:10:03.890Z,7.42
2018-12-31T06:20:17.786Z,7.44
2018-12-31T06:30:50.560Z,7.42
2018-12-31T06:35:54.794Z,7.44
2018-12-31T06:41:18.055Z,7.44
2018-12-31T06:46:41.212Z,7.41
2018-12-31T06:51:56.949Z,7.41
2018-12-31T06:57:01.189Z,7.42
2018-12-31T07:17:35.765Z,7.42
2018-12-31T07:22:59.383Z,7.44
2018-12-31T07:28:03.785Z,7.42
2018-12-31T07:33:27.430Z,7.44
2018-12-31T07:43:41.728Z,7.42
2018-12-31T07:48:45.995Z,7.51
2018-12-31T07:54:02.384Z,7.52
2018-12-31T08:04:16.425Z,7.51
2018-12-31T08:15:08.826Z,7.57
2018-12-31T08:20:31.992Z,7.57
2018-12-31T08:25:36.236Z,7.60
2018-12-31T08:36:09.675Z,7.70
2018-12-31T08:41:32.990Z,7.70
2018-12-31T08:46:56.562Z,7.73
2018-12-31T08:57:23.179Z,7.88
2018-12-31T09:07:37.627Z,7.92
2018-12-31T09:18:10.714Z,7.98
2018-12-31T09:23:34.228Z,8.04
2018-12-31T09:28:38.468Z,8.03
2018-12-31T09:39:30.803Z,8.25
2018-12-31T09:44:54.132Z,8.32
2018-12-31T09:50:17.443Z,8.49
2018-12-31T10:00:51.010Z,8.48
2018-12-31T10:05:55.274Z,8.45
2018-12-31T10:11:18.583Z,8.51
2018-12-31T10:21:51.640Z,8.60
2018-12-31T10:26:55.941Z,8.60
2018-12-31T10:32:00.187Z,8.66
2018-12-31T10:37:23.497Z,8.72
2018-12-31T10:42:27.759Z,8.73
2018-12-31T10:47:51.004Z,8.70
2018-12-31T10:52:55.249Z,8.66
2018-12-31T11:03:28.559Z,8.60
2018-12-31T11:08:51.868Z,8.67
2018-12-31T11:24:54.229Z,8.75
2018-12-31T11:35:08.929Z,8.71
2018-12-31T11:40:32.260Z,8.72
2018-12-31T11:45:55.605Z,8.87
2018-12-31T11:51:22.064Z,8.94
2018-12-31T12:01:36.712Z,9.01
2018-12-31T12:06:52.563Z,8.99
2018-12-31T12:17:25.972Z,8.80
2018-12-31T12:22:30.321Z,8.77
2018-12-31T12:27:53.643Z,8.69
2018-12-31T12:43:19.759Z,8.54
2018-12-31T12:53:33.824Z,8.55
2018-12-31T12:58:38.715Z,8.52
2018-12-31T13:03:42.978Z,8.44
2018-12-31T13:08:47.284Z,8.47
2018-12-31T13:13:51.548Z,8.48
2018-12-31T13:18:55.815Z,8.47
2018-12-31T13:24:00.074Z,8.42
2018-12-31T13:39:56.488Z,8.53
2018-12-31T13:45:40.178Z,8.61
2018-12-31T13:50:44.528Z,8.61
2018-12-31T13:56:07.803Z,8.62
2018-12-31T14:01:12.145Z,8.64
2018-12-31T14:11:45.736Z,8.67
2018-12-31T14:17:09.172Z,8.67
2018-12-31T14:22:32.472Z,8.71
2018-12-31T14:27:37.094Z,8.66
2018-12-31T14:32:43.080Z,8.63
2018-12-31T14:37:47.371Z,8.59
2018-12-31T14:43:10.710Z,8.55
2018-12-31T14:48:34.287Z,8.51
2018-12-31T14:53:38.940Z,8.48
2018-12-31T14:59:02.323Z,8.49
2018-12-31T15:04:07.278Z,8.40
2018-12-31T15:09:30.613Z,8.37
2018-12-31T15:19:45.366Z,8.34
2018-12-31T15:25:09.011Z,8.33
2018-12-31T15:30:13.258Z,8.29
2018-12-31T15:35:17.654Z,8.25
2018-12-31T15:40:40.972Z,8.25
2018-12-31T15:46:04.295Z,8.23
2018-12-31T15:56:37.649Z,8.16
2018-12-31T16:02:00.990Z,8.13
2018-12-31T16:07:05.264Z,8.10
2018-12-31T16:12:28.578Z,8.10
2018-12-31T16:22:44.707Z,8.06
2018-12-31T16:27:48.956Z,8.02
2018-12-31T16:33:12.278Z,8.03
2018-12-31T16:38:16.519Z,8.01
2018-12-31T16:43:39.839Z,7.99
2018-12-31T16:49:03.430Z,7.94
2018-12-31T16:54:07.672Z,7.96
2018-12-31T16:59:11.926Z,7.99
2018-12-31T17:10:04.334Z,7.95
2018-12-31T17:20:49.998Z,7.91
2018-12-31T17:25:54.328Z,7.90
2018-12-31T17:36:29.662Z,7.89
2018-12-31T17:41:33.965Z,7.86
2018-12-31T17:46:38.237Z,7.87
2018-12-31T17:52:01.540Z,7.84
2018-12-31T18:02:56.872Z,7.81
2018-12-31T18:08:20.119Z,7.80
2018-12-31T18:13:24.404Z,7.77
2018-12-31T18:18:28.662Z,7.76
2018-12-31T18:23:45.164Z,7.74
2018-12-31T18:29:01.608Z,7.76
2018-12-31T18:39:15.803Z,7.71
2018-12-31T18:44:20.046Z,7.72
2018-12-31T18:49:24.363Z,7.73
2018-12-31T18:54:47.598Z,7.75
2018-12-31T18:59:51.845Z,7.75
2018-12-31T19:04:57.814Z,7.70
2018-12-31T19:10:21.169Z,7.72
2018-12-31T19:20:35.481Z,7.71
2018-12-31T19:25:58.759Z,7.71
2018-12-31T19:36:51.816Z,7.67
2018-12-31T19:42:15.021Z,7.69
2018-12-31T19:47:19.263Z,7.66
2018-12-31T20:03:03.245Z,7.68
2018-12-31T20:08:26.659Z,7.65
2018-12-31T20:24:28.343Z,7.66
2018-12-31T20:40:11.684Z,7.68
2018-12-31T20:45:15.923Z,7.66
2018-12-31T20:55:48.948Z,7.58
2018-12-31T21:16:41.118Z,7.56
2018-12-31T21:21:45.515Z,7.52
2018-12-31T21:32:30.902Z,7.54
2018-12-31T21:38:14.473Z,7.57
2018-12-31T21:43:37.812Z,7.54
2018-12-31T21:49:01.089Z,7.58
2018-12-31T21:54:24.424Z,7.58
2018-12-31T22:04:57.183Z,7.58
2018-12-31T22:10:20.519Z,7.60
2018-12-31T22:20:36.569Z,7.56
2018-12-31T22:26:01.913Z,7.55
2018-12-31T22:36:46.861Z,7.56
2018-12-31T22:41:51.201Z,7.51
2018-12-31T22:46:56.335Z,7.55
2018-12-31T22:52:41.000Z,7.56
2018-12-31T22:57:45.361Z,7.58
2018-12-31T23:02:49.653Z,7.61
2018-12-31T23:19:05.453Z,7.57
2018-12-31T23:24:09.900Z,7.55
2018-12-31T23:35:02.581Z,7.55
2018-12-31T23:40:19.304Z,7.57
2018-12-31T23:45:35.188Z,7.55
2018-12-31T23:50:52.210Z,7.52
2018-12-31T23:56:09.710Z,7.55
